Time;durP1;ratioP1;P1;durP2;ratioP2;P2;SDS_P1;SDS_P2;PMS_P1;PMS_P2;Temp;Humidity;BMP_temperature;BMP_pressure;BME280_temperature;BME280_humidity;BME280_pressure;Samples;Min_cycle;Max_cycle;Signal;HPM_P1;HPM_P2
2022/05/22 00:00:00;;;;;;;6.47;2.73;;;12.10;99.90;;;;;;8325906;28;20207;-79
2022/05/22 00:04:01;;;;;;;7.63;3.43;;;12.10;1.00;;;;;;8322377;28;20195;-79
2022/05/22 00:08:03;;;;;;;6.40;2.90;;;12.00;56.00;;;;;;8326710;28;20218;-78
2022/05/22 00:12:06;;;;;;;4.60;2.40;;;12.00;99.00;;;;;;8324287;28;20316;-78
2022/05/22 00:20:26;;;;;;;7.37;2.80;;;12.10;1.00;;;;;;8347934;28;20237;-79
2022/05/22 00:24:32;;;;;;;5.00;2.90;;;12.00;99.90;;;;;;8334446;28;20191;-79
2022/05/22 00:28:33;;;;;;;6.27;3.00;;;12.10;1.00;;;;;;8326852;28;20215;-78
2022/05/22 00:32:36;;;;;;;3.13;2.37;;;12.00;1.00;;;;;;8329203;28;20229;-78
2022/05/22 00:36:37;;;;;;;5.67;2.93;;;12.00;99.90;;;;;;8324914;28;20182;-78
2022/05/22 00:40:38;;;;;;;5.63;2.50;;;12.00;99.90;;;;;;8348192;28;20276;-78
2022/05/22 00:44:39;;;;;;;5.90;2.37;;;11.90;99.90;;;;;;8328602;28;20187;-79
2022/05/22 00:48:45;;;;;;;4.50;2.43;;;11.80;1.00;;;;;;8348327;28;20186;-79
2022/05/22 00:52:55;;;;;;;4.80;2.40;;;11.70;99.90;;;;;;8327761;28;20211;-78
2022/05/22 00:57:07;;;;;;;5.47;2.47;;;11.60;1.00;;;;;;8330079;28;20180;-79
2022/05/22 01:01:08;;;;;;;4.73;2.63;;;11.60;1.00;;;;;;8335881;28;20283;-80
2022/05/22 01:05:09;;;;;;;4.50;2.70;;;11.50;99.90;;;;;;8328146;28;20192;-78
2022/05/22 01:09:10;;;;;;;7.53;3.07;;;11.30;99.90;;;;;;8333247;28;20194;-78
2022/05/22 01:13:18;;;;;;;7.93;2.87;;;11.10;1.00;;;;;;8326299;28;20183;-78
2022/05/22 01:17:19;;;;;;;4.87;2.83;;;11.00;1.00;;;;;;8344414;28;20269;-78
2022/05/22 01:21:24;;;;;;;6.93;3.47;;;10.90;99.90;;;;;;8342211;28;20193;-78
2022/05/22 01:25:25;;;;;;;6.57;3.10;;;10.80;99.90;;;;;;8344791;28;20190;-79
2022/05/22 01:29:26;;;;;;;4.17;2.73;;;10.70;1.00;;;;;;8326157;28;20218;-79
2022/05/22 01:33:28;;;;;;;5.77;3.07;;;10.50;1.00;;;;;;8322309;28;20179;-78
2022/05/22 01:37:29;;;;;;;4.57;3.30;;;10.40;1.00;;;;;;8332910;28;20182;-78
2022/05/22 01:41:30;;;;;;;6.77;2.73;;;10.30;1.00;;;;;;8327419;28;20217;-79
2022/05/22 01:45:32;;;;;;;2.90;2.50;;;10.30;32.30;;;;;;8332345;28;20190;-79
2022/05/22 01:49:32;;;;;;;4.57;2.87;;;10.20;99.90;;;;;;8307476;28;20210;-78
2022/05/22 01:53:33;;;;;;;5.57;2.67;;;10.20;99.90;;;;;;8334664;28;20190;-78
2022/05/22 01:57:34;;;;;;;5.90;2.80;;;10.20;99.90;;;;;;8318886;28;20218;-79
2022/05/22 02:01:35;;;;;;;5.53;3.13;;;10.10;99.90;;;;;;8329711;28;20197;-79
2022/05/22 02:05:36;;;;;;;7.77;3.03;;;10.20;99.90;;;;;;8325477;28;20236;-79
2022/05/22 02:09:37;;;;;;;4.67;3.23;;;10.20;39.10;;;;;;8335569;28;20212;-80
2022/05/22 02:13:44;;;;;;;7.17;3.40;;;10.20;3.90;;;;;;8336316;28;20193;-80
2022/05/22 02:17:45;;;;;;;4.87;3.17;;;10.30;4.40;;;;;;8329246;28;20183;-80
2022/05/22 02:21:46;;;;;;;5.53;3.10;;;10.30;1.00;;;;;;8331786;28;20192;-79
2022/05/22 02:25:50;;;;;;;5.43;3.07;;;10.40;99.90;;;;;;8322887;28;20190;-80
2022/05/22 02:29:50;;;;;;;6.37;3.13;;;10.40;99.90;;;;;;8326635;28;20253;-80
2022/05/22 02:33:51;;;;;;;6.27;2.53;;;10.50;99.90;;;;;;8320731;28;20193;-77
2022/05/22 02:37:54;;;;;;;3.27;2.77;;;10.50;1.00;;;;;;8321937;28;20270;-78
2022/05/22 02:42:05;;;;;;;4.47;2.30;;;10.50;1.00;;;;;;8336424;28;20201;-78
2022/05/22 02:46:14;;;;;;;3.97;2.67;;;10.60;99.90;;;;;;8330659;28;20258;-79
2022/05/22 02:50:19;;;;;;;3.73;2.47;;;10.60;1.00;;;;;;8323258;28;20210;-79
2022/05/22 02:54:21;;;;;;;6.57;2.70;;;10.60;99.90;;;;;;8332443;28;20236;-79
2022/05/22 02:58:21;;;;;;;5.50;2.70;;;10.70;99.90;;;;;;8325958;28;20185;-79
2022/05/22 03:02:22;;;;;;;2.53;2.10;;;10.70;1.00;;;;;;8346107;28;20247;-79
2022/05/22 03:06:38;;;;;;;7.47;2.20;;;10.80;1.00;;;;;;8325410;28;20281;-78
2022/05/22 03:10:39;;;;;;;7.33;2.97;;;10.80;99.90;;;;;;8346186;28;20203;-80
2022/05/22 03:14:49;;;;;;;5.90;2.80;;;10.80;99.90;;;;;;8329835;28;20229;-77
2022/05/22 03:18:49;;;;;;;5.33;2.00;;;10.90;99.90;;;;;;8322244;28;20258;-76
2022/05/22 03:22:50;;;;;;;5.53;2.33;;;10.90;1.00;;;;;;8325117;28;20198;-75
2022/05/22 03:26:52;;;;;;;4.20;2.40;;;10.90;1.00;;;;;;8322831;28;20181;-75
2022/05/22 03:30:53;;;;;;;3.07;2.73;;;11.00;99.90;;;;;;8328048;28;20439;-76
2022/05/22 03:34:54;;;;;;;3.97;2.50;;;11.00;1.00;;;;;;8326227;28;20182;-77
2022/05/22 03:38:55;;;;;;;4.73;2.50;;;11.10;27.40;;;;;;8328703;28;20193;-75
2022/05/22 03:43:00;;;;;;;6.23;2.70;;;11.10;99.90;;;;;;8324905;28;20216;-77
2022/05/22 03:47:00;;;;;;;5.33;2.93;;;11.20;1.00;;;;;;8346149;28;20170;-81
2022/05/22 03:51:03;;;;;;;6.40;2.83;;;11.30;86.30;;;;;;8324474;28;20369;-76
2022/05/22 03:55:05;;;;;;;7.33;3.10;;;11.30;1.00;;;;;;8339057;28;20204;-79
2022/05/22 03:59:07;;;;;;;5.00;2.87;;;11.40;99.90;;;;;;8333584;28;20212;-75
2022/05/22 04:03:09;;;;;;;3.77;2.27;;;11.70;1.00;;;;;;8330877;28;20188;-75
2022/05/22 04:07:10;;;;;;;4.77;2.77;;;12.10;1.00;;;;;;8318383;28;20274;-76
2022/05/22 04:11:17;;;;;;;5.17;2.13;;;12.70;1.00;;;;;;8354649;28;20212;-75
2022/05/22 04:15:20;;;;;;;7.20;2.10;;;13.20;1.00;;;;;;8333414;28;20204;-76
2022/05/22 04:19:21;;;;;;;2.63;1.60;;;13.60;99.90;;;;;;8357261;28;20209;-77
2022/05/22 04:27:42;;;;;;;5.13;2.40;;;12.80;99.90;;;;;;8354269;28;20343;-75
2022/05/22 04:31:43;;;;;;;5.07;2.00;;;12.60;1.00;;;;;;8331436;28;20221;-77
2022/05/22 04:35:44;;;;;;;5.20;2.07;;;12.50;1.00;;;;;;8355687;28;20182;-75
2022/05/22 04:39:45;;;;;;;2.73;1.67;;;12.60;1.00;;;;;;8334791;28;20367;-78
2022/05/22 04:43:47;;;;;;;4.10;1.90;;;12.80;1.00;;;;;;8330054;28;20268;-79
2022/05/22 04:47:48;;;;;;;5.03;1.90;;;12.90;1.00;;;;;;8332026;28;20188;-77
2022/05/22 04:51:48;;;;;;;3.30;2.03;;;12.80;1.00;;;;;;8335375;28;20230;-76
2022/05/22 04:55:49;;;;;;;2.33;1.70;;;12.80;45.50;;;;;;8337132;28;20667;-75
2022/05/22 04:59:50;;;;;;;5.03;2.30;;;13.00;1.00;;;;;;8328556;28;20194;-80
2022/05/22 05:03:51;;;;;;;4.17;1.80;;;13.30;99.90;;;;;;8327016;28;20185;-78
2022/05/22 05:07:51;;;;;;;4.37;1.90;;;13.50;1.00;;;;;;8325604;28;20192;-75
2022/05/22 05:11:52;;;;;;;5.20;2.00;;;13.40;99.90;;;;;;8329176;28;20229;-75
2022/05/22 05:16:11;;;;;;;2.77;1.60;;;13.20;99.90;;;;;;8322489;28;20203;-77
2022/05/22 05:20:18;;;;;;;3.23;1.57;;;13.00;99.90;;;;;;8334769;28;20200;-75
2022/05/22 05:24:19;;;;;;;5.20;1.93;;;13.00;99.90;;;;;;8327602;28;20197;-76
2022/05/22 05:28:19;;;;;;;4.73;2.00;;;13.00;99.90;;;;;;8327027;28;20213;-77
2022/05/22 05:32:22;;;;;;;5.10;1.30;;;13.20;78.80;;;;;;8327440;28;20217;-74
2022/05/22 05:36:23;;;;;;;4.70;1.57;;;13.20;1.00;;;;;;8330688;28;20240;-76
2022/05/22 05:40:24;;;;;;;4.90;1.57;;;13.10;23.10;;;;;;8327416;28;20210;-74
2022/05/22 05:44:24;;;;;;;5.13;1.60;;;13.30;1.00;;;;;;8323942;28;20190;-76
2022/05/22 05:48:25;;;;;;;3.67;1.20;;;13.40;1.00;;;;;;8335650;28;20193;-75
2022/05/22 05:52:26;;;;;;;4.23;1.23;;;13.30;99.90;;;;;;8329673;28;20210;-81
2022/05/22 05:56:27;;;;;;;4.57;1.50;;;13.10;99.90;;;;;;8327507;28;20200;-79
2022/05/22 06:00:28;;;;;;;5.27;1.57;;;12.90;1.00;;;;;;8328292;28;20404;-77
2022/05/22 06:04:29;;;;;;;5.77;1.77;;;13.00;1.00;;;;;;8333486;28;20200;-77
2022/05/22 06:08:30;;;;;;;3.30;1.53;;;13.10;1.00;;;;;;8348235;28;20192;-77
2022/05/22 06:12:31;;;;;;;5.27;1.60;;;13.10;1.00;;;;;;8329124;28;20252;-76
2022/05/22 06:16:32;;;;;;;4.83;1.73;;;13.30;99.90;;;;;;8324816;28;20181;-77
2022/05/22 06:20:33;;;;;;;6.60;1.60;;;13.70;1.00;;;;;;8325873;28;20193;-81
2022/05/22 06:24:35;;;;;;;3.77;1.53;;;13.50;99.90;;;;;;8331614;28;20286;-76
2022/05/22 06:28:36;;;;;;;5.77;1.80;;;13.40;1.00;;;;;;8311714;28;20263;-77
2022/05/22 06:32:39;;;;;;;3.70;1.30;;;13.50;1.00;;;;;;8345429;28;20317;-76
2022/05/22 06:36:40;;;;;;;4.40;1.60;;;13.90;99.90;;;;;;8328877;28;20197;-78
2022/05/22 06:40:41;;;;;;;5.23;1.30;;;14.10;80.30;;;;;;8344417;28;20210;-76
2022/05/22 06:44:42;;;;;;;2.77;0.97;;;14.30;99.90;;;;;;8316881;28;20202;-74
2022/05/22 06:48:43;;;;;;;4.70;1.00;;;14.30;1.00;;;;;;8323095;28;20194;-78
2022/05/22 06:52:44;;;;;;;3.33;1.17;;;14.00;1.00;;;;;;8338953;28;20269;-76
2022/05/22 06:56:44;;;;;;;3.43;1.17;;;13.90;1.00;;;;;;8323844;28;20186;-78
2022/05/22 07:00:53;;;;;;;3.93;1.13;;;13.90;99.90;;;;;;8325305;28;20190;-80
2022/05/22 07:04:59;;;;;;;4.13;1.13;;;13.90;29.40;;;;;;8335401;28;20194;-76
2022/05/22 07:09:00;;;;;;;5.03;1.37;;;13.90;99.90;;;;;;8342206;28;20211;-78
2022/05/22 07:13:00;;;;;;;1.03;0.90;;;14.20;1.00;;;;;;8329119;28;20236;-77
2022/05/22 07:17:03;;;;;;;4.73;1.40;;;14.40;1.00;;;;;;8321071;28;20581;-79
2022/05/22 07:21:04;;;;;;;5.17;1.37;;;14.30;1.00;;;;;;8337735;28;20264;-76
2022/05/22 07:25:05;;;;;;;2.70;1.13;;;14.30;1.00;;;;;;8320414;28;20201;-78
2022/05/22 07:29:07;;;;;;;6.47;1.30;;;14.50;1.00;;;;;;8322049;28;20212;-78
2022/05/22 07:33:08;;;;;;;1.97;0.90;;;14.30;1.00;;;;;;8330524;28;20272;-76
2022/05/22 07:37:11;;;;;;;3.73;1.03;;;14.50;1.00;;;;;;8320353;28;20189;-76
2022/05/22 07:41:12;;;;;;;3.33;1.20;;;14.80;1.00;;;;;;8324118;28;20225;-78
2022/05/22 07:45:15;;;;;;;3.10;1.27;;;14.90;1.00;;;;;;8338268;28;20186;-76
2022/05/22 07:53:36;;;;;;;4.87;1.13;;;14.60;1.00;;;;;;8331995;28;20516;-79
2022/05/22 07:57:37;;;;;;;3.13;1.00;;;14.80;1.00;;;;;;8333533;28;20185;-80
2022/05/22 08:01:38;;;;;;;2.53;0.83;;;15.20;1.00;;;;;;8325196;28;20186;-77
2022/05/22 08:05:39;;;;;;;2.00;1.17;;;15.10;1.00;;;;;;8330750;28;20224;-80
2022/05/22 08:09:40;;;;;;;3.23;1.30;;;14.90;99.90;;;;;;8306219;28;20214;-76
2022/05/22 08:13:41;;;;;;;3.30;1.10;;;14.90;99.90;;;;;;8326569;28;20263;-75
2022/05/22 08:17:43;;;;;;;3.03;1.10;;;14.90;99.90;;;;;;8332677;28;20183;-75
2022/05/22 08:21:44;;;;;;;3.10;1.10;;;15.10;99.90;;;;;;8324318;28;20186;-75
2022/05/22 08:25:50;;;;;;;2.63;1.00;;;15.30;99.90;;;;;;8321842;28;20182;-75
2022/05/22 08:29:51;;;;;;;2.13;1.07;;;15.30;99.90;;;;;;8318863;28;20225;-74
2022/05/22 08:34:04;;;;;;;4.17;1.37;;;15.00;99.90;;;;;;8322324;28;20243;-77
2022/05/22 08:38:07;;;;;;;2.27;0.80;;;15.00;1.00;;;;;;8329431;28;20186;-75
2022/05/22 08:42:10;;;;;;;2.70;1.03;;;15.40;99.90;;;;;;8330268;28;20217;-74
2022/05/22 08:46:29;;;;;;;2.27;1.13;;;15.70;99.90;;;;;;8324071;28;20186;-76
2022/05/22 08:50:32;;;;;;;2.60;1.00;;;15.50;99.90;;;;;;8331731;28;20264;-74
2022/05/22 08:54:46;;;;;;;2.03;0.80;;;15.50;99.90;;;;;;8324843;28;20188;-79
2022/05/22 08:58:58;;;;;;;1.97;0.83;;;15.70;99.90;;;;;;8335699;28;20183;-79
2022/05/22 09:03:05;;;;;;;2.00;1.20;;;15.50;99.90;;;;;;8319515;28;20183;-75
2022/05/22 09:07:23;;;;;;;3.93;0.93;;;15.10;99.90;;;;;;8329296;28;20296;-74
2022/05/22 09:11:42;;;;;;;2.30;1.00;;;15.40;99.90;;;;;;8325563;28;20213;-77
2022/05/22 09:16:01;;;;;;;2.20;0.83;;;16.20;99.90;;;;;;8328727;28;20182;-75
2022/05/22 09:20:34;;;;;;;2.30;0.70;;;16.50;99.90;;;;;;8330578;28;20248;-75
2022/05/22 09:25:05;;;;;;;2.73;1.00;;;16.40;99.90;;;;;;8310022;28;20288;-79
2022/05/22 09:29:46;;;;;;;3.83;1.00;;;16.70;99.90;;;;;;8339901;28;20213;-79
2022/05/22 09:34:27;;;;;;;1.93;0.90;;;16.50;99.90;;;;;;8279830;28;20206;-75
2022/05/22 09:38:52;;;;;;;4.90;1.10;;;16.10;99.90;;;;;;8319814;28;20245;-77
2022/05/22 09:43:17;;;;;;;2.37;0.90;;;16.80;99.90;;;;;;8337355;28;20197;-77
2022/05/22 09:47:36;;;;;;;1.50;0.70;;;17.20;99.90;;;;;;8344030;28;20191;-79
2022/05/22 09:52:00;;;;;;;2.47;1.30;;;17.00;95.80;;;;;;8323917;28;20213;-76
2022/05/22 09:56:33;;;;;;;2.00;1.00;;;16.40;83.80;;;;;;8335391;28;20175;-79
2022/05/22 10:00:39;;;;;;;3.20;1.10;;;16.60;99.90;;;;;;8336232;28;20239;-80
2022/05/22 10:04:59;;;;;;;2.07;0.77;;;17.10;99.90;;;;;;8346271;28;20209;-75
2022/05/22 10:09:27;;;;;;;1.87;0.93;;;17.20;81.30;;;;;;8339544;28;20197;-78
2022/05/22 10:13:52;;;;;;;1.70;0.70;;;16.80;99.90;;;;;;8319243;28;20407;-76
2022/05/22 10:18:24;;;;;;;2.07;1.07;;;17.10;99.90;;;;;;8342558;28;20185;-75
2022/05/22 10:22:28;;;;;;;3.73;1.23;;;17.80;99.90;;;;;;8330780;28;20245;-77
2022/05/22 10:26:38;;;;;;;1.20;0.80;;;17.20;77.70;;;;;;8327168;28;20178;-76
2022/05/22 10:31:06;;;;;;;3.27;0.80;;;16.70;99.90;;;;;;8321576;28;20209;-79
2022/05/22 10:35:10;;;;;;;1.67;0.90;;;16.80;99.90;;;;;;8324171;28;20281;-78
2022/05/22 10:39:13;;;;;;;4.30;1.10;;;16.80;99.90;;;;;;8324641;28;20198;-75
2022/05/22 10:43:14;;;;;;;1.80;0.93;;;17.50;99.90;;;;;;8319921;28;20189;-75
2022/05/22 10:47:30;;;;;;;2.03;0.80;;;17.80;80.00;;;;;;8331769;28;20296;-77
2022/05/22 10:51:30;;;;;;;3.07;0.83;;;17.10;76.60;;;;;;8336038;28;20296;-79
2022/05/22 10:55:34;;;;;;;1.80;0.83;;;16.80;99.90;;;;;;8322220;28;20185;-79
2022/05/22 10:59:35;;;;;;;3.03;1.00;;;16.80;98.50;;;;;;8314749;28;20290;-77
2022/05/22 11:03:36;;;;;;;1.47;0.90;;;17.10;97.00;;;;;;8326404;28;20253;-76
2022/05/22 11:07:51;;;;;;;2.17;1.00;;;17.20;76.30;;;;;;8317399;28;20190;-74
2022/05/22 11:12:02;;;;;;;2.07;0.73;;;17.50;86.10;;;;;;8326828;28;20206;-75
2022/05/22 11:16:12;;;;;;;5.00;0.93;;;17.00;82.50;;;;;;8338082;28;20174;-74
2022/05/22 11:20:22;;;;;;;2.47;1.07;;;16.80;99.90;;;;;;8326210;28;20340;-76
2022/05/22 11:24:32;;;;;;;3.90;0.97;;;17.10;99.90;;;;;;8326376;28;20189;-75
2022/05/22 11:28:44;;;;;;;3.50;1.03;;;17.40;45.50;;;;;;8347633;28;20251;-79
2022/05/22 11:33:25;;;;;;;1.37;1.00;;;17.30;31.40;;;;;;8338809;28;20522;-79
2022/05/22 11:37:50;;;;;;;3.30;1.03;;;17.40;64.70;;;;;;8339070;28;20183;-75
2022/05/22 11:42:02;;;;;;;1.70;0.93;;;17.60;47.60;;;;;;8342107;28;20233;-78
2022/05/22 11:46:07;;;;;;;2.33;0.70;;;17.70;54.50;;;;;;8319635;28;20185;-74
2022/05/22 11:50:23;;;;;;;3.43;0.70;;;17.50;59.50;;;;;;8322446;28;20245;-79
2022/05/22 11:55:08;;;;;;;2.20;0.90;;;17.30;98.00;;;;;;8313788;28;20189;-76
2022/05/22 12:00:08;;;;;;;2.70;0.90;;;17.80;67.60;;;;;;8315414;28;20189;-80
2022/05/22 12:04:23;;;;;;;1.77;0.70;;;18.50;12.40;;;;;;8152310;29;20193;-75
2022/05/22 12:08:52;;;;;;;1.93;1.17;;;18.70;1.00;;;;;;8265937;28;20194;-75
2022/05/22 12:13:02;;;;;;;3.50;1.10;;;19.10;1.00;;;;;;8337680;28;20207;-80
2022/05/22 12:17:40;;;;;;;2.53;1.13;;;18.60;1.00;;;;;;8347523;28;20183;-79
2022/05/22 12:22:00;;;;;;;2.67;1.00;;;18.50;1.00;;;;;;8330739;28;20252;-75
2022/05/22 12:26:07;;;;;;;2.50;0.90;;;18.10;14.90;;;;;;8320751;28;20178;-75
2022/05/22 12:30:34;;;;;;;2.80;0.90;;;17.90;35.00;;;;;;8343603;28;20221;-76
2022/05/22 12:34:44;;;;;;;2.07;0.93;;;18.00;10.40;;;;;;8342588;28;20248;-79
2022/05/22 12:38:52;;;;;;;2.20;0.80;;;18.30;6.50;;;;;;8325347;28;20198;-76
2022/05/22 12:42:56;;;;;;;1.60;0.70;;;19.30;1.00;;;;;;8339707;28;20206;-75
2022/05/22 12:46:58;;;;;;;1.40;0.73;;;19.50;1.00;;;;;;8343432;28;20194;-76
2022/05/22 12:51:08;;;;;;;1.53;0.57;;;18.30;1.00;;;;;;8324786;28;20197;-76
2022/05/22 12:55:33;;;;;;;1.90;0.70;;;17.70;50.30;;;;;;8345778;28;20178;-76
2022/05/22 12:59:34;;;;;;;1.37;0.63;;;17.90;7.00;;;;;;8346647;28;20174;-77
2022/05/22 13:03:42;;;;;;;3.07;0.90;;;18.00;1.00;;;;;;8333333;28;20189;-76
2022/05/22 13:07:43;;;;;;;1.33;0.70;;;18.00;1.00;;;;;;8327331;28;20186;-75
2022/05/22 13:11:59;;;;;;;3.23;0.63;;;18.30;1.00;;;;;;8325277;28;20220;-76
2022/05/22 13:16:08;;;;;;;4.83;0.90;;;18.70;1.00;;;;;;8318877;28;20446;-75
2022/05/22 13:20:42;;;;;;;2.80;0.60;;;18.80;1.00;;;;;;8318752;28;20189;-76
2022/05/22 13:24:50;;;;;;;1.40;0.60;;;18.70;1.00;;;;;;8342315;28;20250;-77
2022/05/22 13:29:08;;;;;;;1.43;0.50;;;18.60;1.00;;;;;;8324749;28;20231;-76
2022/05/22 13:33:11;;;;;;;2.17;0.90;;;18.90;1.00;;;;;;8326937;28;20233;-77
2022/05/22 13:37:14;;;;;;;1.13;0.50;;;19.20;1.00;;;;;;8328062;28;20229;-74
2022/05/22 13:41:32;;;;;;;1.87;0.70;;;18.70;1.00;;;;;;8326682;28;20213;-76
2022/05/22 13:45:42;;;;;;;1.17;0.60;;;18.60;1.00;;;;;;8344132;28;20280;-79
2022/05/22 13:52:34;;;;;;;1.07;0.53;;;18.60;1.00;;;;;;8336256;28;20190;-75
2022/05/22 13:54:36;;;;;;;2.50;0.67;;;18.70;1.00;;;;;;8343961;28;20197;-76
2022/05/22 13:58:38;;;;;;;2.33;0.67;;;18.80;1.00;;;;;;8341634;28;20190;-77
2022/05/22 14:03:07;;;;;;;2.13;0.70;;;18.80;1.00;;;;;;8324362;28;20186;-75
2022/05/22 14:07:17;;;;;;;1.53;0.57;;;19.40;1.00;;;;;;8332083;28;20177;-82
2022/05/22 14:11:27;;;;;;;2.90;0.60;;;19.50;1.00;;;;;;8323292;28;20268;-74
2022/05/22 14:15:28;;;;;;;1.10;0.60;;;19.30;1.00;;;;;;8319727;28;20239;-74
2022/05/22 14:19:35;;;;;;;1.33;0.80;;;19.50;1.00;;;;;;8319489;28;20186;-75
2022/05/22 14:28:07;;;;;;;2.63;0.50;;;18.80;1.00;;;;;;8344939;28;20221;-76
2022/05/22 14:32:20;;;;;;;2.63;0.70;;;18.60;1.00;;;;;;8330592;28;20221;-76
2022/05/22 14:36:21;;;;;;;1.50;0.63;;;18.70;1.00;;;;;;8324297;28;20289;-75
2022/05/22 14:40:34;;;;;;;1.40;0.50;;;18.80;1.00;;;;;;8336386;28;20662;-76
2022/05/22 14:44:36;;;;;;;1.70;0.97;;;18.90;1.00;;;;;;8345599;28;20265;-77
2022/05/22 14:48:40;;;;;;;2.53;0.60;;;18.80;1.00;;;;;;8340666;28;20273;-78
2022/05/22 14:52:46;;;;;;;1.77;0.70;;;18.90;1.00;;;;;;8323270;28;20218;-75
2022/05/22 14:57:03;;;;;;;1.73;0.50;;;18.80;1.00;;;;;;8322096;28;20285;-80
2022/05/22 15:01:13;;;;;;;1.83;0.50;;;18.60;1.00;;;;;;8341560;28;20189;-80
2022/05/22 15:05:33;;;;;;;1.57;0.53;;;18.50;1.00;;;;;;8327512;28;20189;-76
2022/05/22 15:09:39;;;;;;;1.00;0.50;;;18.50;1.00;;;;;;8328209;28;20194;-77
2022/05/22 15:13:55;;;;;;;1.53;0.70;;;18.70;1.00;;;;;;8321096;28;20268;-80
2022/05/22 15:18:13;;;;;;;0.90;0.40;;;18.90;1.00;;;;;;8324158;28;20205;-79
2022/05/22 15:26:47;;;;;;;5.17;2.90;;;19.00;1.00;;;;;;8336884;28;20192;-80
2022/05/22 15:31:01;;;;;;;2.00;0.60;;;19.40;1.00;;;;;;8338621;28;20201;-80
2022/05/22 15:35:03;;;;;;;2.23;0.80;;;19.70;1.00;;;;;;8325809;28;20265;-76
2022/05/22 15:39:07;;;;;;;1.87;0.40;;;19.70;1.00;;;;;;8321932;28;20201;-76
2022/05/22 15:43:13;;;;;;;1.13;0.30;;;19.30;1.00;;;;;;8328855;28;20185;-79
2022/05/22 15:47:23;;;;;;;1.80;0.87;;;19.10;1.00;;;;;;8340994;28;20182;-78
2022/05/22 15:51:24;;;;;;;1.43;0.53;;;19.00;1.00;;;;;;8316167;28;20218;-79
2022/05/22 15:55:28;;;;;;;1.80;0.63;;;18.60;1.00;;;;;;8324704;28;20181;-79
2022/05/22 15:59:29;;;;;;;2.20;0.50;;;18.50;1.00;;;;;;8318627;28;20189;-78
2022/05/22 16:03:30;;;;;;;2.17;0.63;;;18.60;1.00;;;;;;8318519;28;20285;-76
2022/05/22 16:07:32;;;;;;;2.27;0.57;;;18.50;1.00;;;;;;8338287;28;20205;-74
2022/05/22 16:11:33;;;;;;;3.83;0.50;;;18.50;1.00;;;;;;8318267;28;20210;-81
2022/05/22 16:15:34;;;;;;;1.33;0.40;;;18.70;1.00;;;;;;8336746;28;20317;-77
2022/05/22 16:19:39;;;;;;;2.17;0.70;;;18.50;1.00;;;;;;8326883;28;20186;-77
2022/05/22 16:23:39;;;;;;;4.80;1.07;;;18.40;1.00;;;;;;8338329;28;20187;-75
2022/05/22 16:27:41;;;;;;;2.73;1.07;;;18.10;1.00;;;;;;8329593;28;20233;-76
2022/05/22 16:31:42;;;;;;;3.33;1.30;;;17.80;1.00;;;;;;8330106;28;20494;-79
2022/05/22 16:35:43;;;;;;;2.53;1.10;;;17.80;1.00;;;;;;8328595;28;20181;-77
2022/05/22 16:39:44;;;;;;;1.90;0.60;;;17.90;1.00;;;;;;8324236;28;20207;-77
2022/05/22 16:43:45;;;;;;;1.27;0.53;;;18.00;1.00;;;;;;8317828;28;20216;-75
2022/05/22 16:56:30;;;;;;;1.97;0.60;;;17.90;1.00;;;;;;8346529;28;20200;-77
2022/05/22 17:00:31;;;;;;;3.97;0.50;;;17.90;1.00;;;;;;8323719;28;20186;-77
2022/05/22 17:04:33;;;;;;;2.07;0.50;;;17.80;1.00;;;;;;8323498;28;20341;-76
2022/05/22 17:08:38;;;;;;;2.10;0.57;;;17.70;1.00;;;;;;8341073;28;20294;-79
2022/05/22 17:12:40;;;;;;;2.10;0.50;;;17.60;1.00;;;;;;8344638;28;20521;-75
2022/05/22 17:16:42;;;;;;;1.67;0.60;;;17.60;1.00;;;;;;8326420;28;20187;-75
2022/05/22 17:20:44;;;;;;;1.67;0.77;;;17.90;1.00;;;;;;8332777;28;20321;-79
2022/05/22 17:25:03;;;;;;;0.70;0.50;;;18.30;1.00;;;;;;8324481;28;20194;-75
2022/05/22 17:29:08;;;;;;;2.33;0.47;;;19.00;1.00;;;;;;8331649;28;20194;-80
2022/05/22 17:33:11;;;;;;;1.20;0.60;;;19.70;1.00;;;;;;8311647;28;20372;-77
2022/05/22 17:37:27;;;;;;;2.33;0.83;;;20.00;1.00;;;;;;8332694;28;20178;-78
2022/05/22 17:41:28;;;;;;;1.20;0.60;;;20.10;1.00;;;;;;8347514;28;20215;-76
2022/05/22 17:45:30;;;;;;;3.17;0.60;;;19.90;1.00;;;;;;8322816;28;20179;-77
2022/05/22 17:49:31;;;;;;;3.43;0.57;;;20.20;1.00;;;;;;8325148;28;20205;-77
2022/05/22 17:53:35;;;;;;;1.60;0.57;;;20.20;1.00;;;;;;8322758;28;20237;-78
2022/05/22 17:57:38;;;;;;;3.57;0.70;;;20.20;1.00;;;;;;8321958;28;20187;-76
2022/05/22 18:01:39;;;;;;;2.30;0.80;;;20.50;1.00;;;;;;8324021;28;20197;-75
2022/05/22 18:05:41;;;;;;;2.00;0.60;;;20.80;1.00;;;;;;8328528;28;20431;-76
2022/05/22 18:09:42;;;;;;;2.67;0.40;;;20.90;1.00;;;;;;8347703;28;20265;-80
2022/05/22 18:18:03;;;;;;;1.23;0.50;;;20.50;1.00;;;;;;8336841;28;20189;-76
2022/05/22 18:22:15;;;;;;;1.47;0.30;;;19.90;1.00;;;;;;8322309;28;20198;-77
2022/05/22 18:26:19;;;;;;;1.27;0.60;;;19.80;1.00;;;;;;8322141;28;20214;-77
2022/05/22 18:30:20;;;;;;;1.07;0.30;;;19.30;1.00;;;;;;8321702;28;20215;-76
2022/05/22 18:34:22;;;;;;;1.20;0.40;;;18.70;1.00;;;;;;8334690;28;20182;-77
2022/05/22 18:38:24;;;;;;;2.77;1.20;;;18.10;1.00;;;;;;8323678;28;20257;-76
2022/05/22 18:42:25;;;;;;;9.83;6.90;;;17.80;1.00;;;;;;8324567;28;20193;-76
2022/05/22 18:46:26;;;;;;;12.23;8.73;;;17.20;1.00;;;;;;8330061;28;20271;-75
2022/05/22 18:50:28;;;;;;;9.00;6.73;;;16.50;62.30;;;;;;8341473;28;20276;-75
2022/05/22 18:54:30;;;;;;;5.57;4.37;;;15.90;99.90;;;;;;8335241;28;20335;-80
2022/05/22 18:58:33;;;;;;;3.30;2.17;;;15.30;99.90;;;;;;8320772;28;20174;-77
2022/05/22 19:02:36;;;;;;;3.73;2.87;;;14.80;99.90;;;;;;8319800;28;20263;-78
2022/05/22 19:06:37;;;;;;;6.30;3.23;;;14.40;99.90;;;;;;8322540;28;20209;-76
2022/05/22 19:10:41;;;;;;;5.73;2.60;;;14.00;1.00;;;;;;8343446;28;20221;-75
2022/05/22 19:14:42;;;;;;;6.87;2.53;;;13.90;1.00;;;;;;8329149;28;20193;-75
2022/05/22 19:18:43;;;;;;;4.67;2.77;;;13.80;1.00;;;;;;8341284;28;20195;-78
2022/05/22 19:22:45;;;;;;;6.63;3.40;;;13.70;1.00;;;;;;8333437;28;20187;-79
2022/05/22 19:26:52;;;;;;;4.83;3.00;;;13.50;1.00;;;;;;8318343;28;20192;-79
2022/05/22 19:30:56;;;;;;;4.60;3.10;;;13.20;34.50;;;;;;8341700;28;20263;-79
2022/05/22 19:34:58;;;;;;;6.00;3.90;;;12.80;99.90;;;;;;8319280;28;20200;-77
2022/05/22 19:39:00;;;;;;;2.60;2.13;;;12.50;99.90;;;;;;8324790;28;20252;-77
2022/05/22 19:47:25;;;;;;;3.27;1.70;;;11.90;1.00;;;;;;8340456;28;20193;-77
2022/05/22 19:51:27;;;;;;;3.67;1.77;;;11.60;1.00;;;;;;8323753;28;20218;-79
2022/05/22 19:59:49;;;;;;;3.43;2.30;;;11.20;99.90;;;;;;8348560;28;20210;-79
2022/05/22 20:03:50;;;;;;;3.17;2.43;;;10.90;99.90;;;;;;8327829;28;20179;-79
2022/05/22 20:07:57;;;;;;;3.03;2.17;;;10.70;1.00;;;;;;8318622;28;20190;-78
2022/05/22 20:11:58;;;;;;;3.27;1.97;;;10.50;1.00;;;;;;8331833;28;20350;-80
2022/05/22 20:15:59;;;;;;;4.07;1.93;;;10.30;99.90;;;;;;8321233;28;20222;-79
2022/05/22 20:20:02;;;;;;;3.73;1.77;;;10.20;1.00;;;;;;8319142;28;20194;-77
2022/05/22 20:24:04;;;;;;;2.50;1.80;;;10.10;93.40;;;;;;8322717;28;20186;-78
2022/05/22 20:28:09;;;;;;;3.23;1.93;;;10.00;99.90;;;;;;8328757;28;20244;-79
2022/05/22 20:32:09;;;;;;;2.10;1.90;;;9.90;1.00;;;;;;8338905;28;20244;-78
2022/05/22 20:36:11;;;;;;;3.30;2.07;;;9.80;99.90;;;;;;8329348;28;20190;-79
2022/05/22 20:40:14;;;;;;;2.40;2.00;;;9.70;1.00;;;;;;8347916;28;20207;-78
2022/05/22 20:44:32;;;;;;;2.97;1.83;;;9.70;90.50;;;;;;8343568;28;20185;-76
2022/05/22 20:48:33;;;;;;;2.30;1.67;;;9.60;1.00;;;;;;8330138;28;20198;-78
2022/05/22 20:52:34;;;;;;;4.50;2.17;;;9.40;99.90;;;;;;8328057;28;20206;-80
2022/05/22 20:56:53;;;;;;;2.40;2.03;;;9.40;99.90;;;;;;8335391;28;20281;-78
2022/05/22 21:00:54;;;;;;;4.13;2.03;;;9.30;1.00;;;;;;8332847;28;20236;-78
2022/05/22 21:04:55;;;;;;;1.80;1.67;;;9.20;99.90;;;;;;8334006;28;20197;-80
2022/05/22 21:08:56;;;;;;;4.00;3.00;;;9.10;99.90;;;;;;8327933;28;20185;-77
2022/05/22 21:12:57;;;;;;;4.07;2.57;;;9.10;99.90;;;;;;8335108;28;20300;-78
2022/05/22 21:16:58;;;;;;;3.60;2.40;;;9.10;99.90;;;;;;8330128;28;20191;-78
2022/05/22 21:20:59;;;;;;;2.47;2.27;;;9.10;99.90;;;;;;8344163;28;20186;-79
2022/05/22 21:29:20;;;;;;;2.90;2.40;;;9.00;1.00;;;;;;8342856;28;20213;-78
2022/05/22 21:33:22;;;;;;;2.57;2.20;;;8.90;1.00;;;;;;8331003;28;20218;-78
2022/05/22 21:37:23;;;;;;;2.83;2.43;;;8.80;1.00;;;;;;8342723;28;20186;-79
2022/05/22 21:41:24;;;;;;;3.73;2.63;;;8.70;97.40;;;;;;8336300;28;20210;-77
2022/05/22 21:45:25;;;;;;;5.20;3.30;;;8.60;99.90;;;;;;8326112;28;20198;-79
2022/05/22 21:49:27;;;;;;;4.77;3.00;;;8.50;99.90;;;;;;8326254;28;20193;-78
2022/05/22 21:53:28;;;;;;;3.30;2.67;;;8.40;99.90;;;;;;8329265;28;20214;-77
2022/05/22 21:57:30;;;;;;;4.37;2.73;;;8.40;1.00;;;;;;8334461;28;20209;-77
2022/05/22 22:01:31;;;;;;;3.67;2.67;;;8.40;9.20;;;;;;8324237;28;20286;-79
2022/05/22 22:05:32;;;;;;;2.40;2.13;;;8.40;1.00;;;;;;8320465;28;20198;-78
2022/05/22 22:09:33;;;;;;;3.00;2.27;;;8.20;1.00;;;;;;8324991;28;20198;-78
2022/05/22 22:13:34;;;;;;;2.80;2.30;;;8.10;99.90;;;;;;8339953;28;20210;-78
2022/05/22 22:17:35;;;;;;;3.20;2.40;;;7.90;1.00;;;;;;8329044;28;20186;-78